Leaday, Texas
Current Conditions -  °F | °C
As of 1:55 PM on Thursday 30 Oct 2014 (Local Time) from KCOM Reporting Station
Clear Clear  
Wind Chill: 78°   Ceiling: Unl
Heat Index: 80°   Visibility: 10mi
Dew Point: 62°   Wind: 0mph
Humidity: 59%   Direction: NA
Pressure: 30.11"   Gusts: NA
Location:  31.6356°N, 99.5918°W
Report Text: KCOM 301855Z AUTO 00000KT 10SM CLR 26/17 A3011 RMK AO2 T02550169
Loading
Personal Weather Stations






























Interactive Weather Map
Tropical Storm Tracking
New forecast layout! Learn more

10-Day Weather Forecast

Advertisements
Track Severe Weather on mobile